createdAt,value
2018-09-18T00:00:29.481Z,62.00
2018-09-18T00:05:33.057Z,61.70
2018-09-18T00:10:36.767Z,62.30
2018-09-18T00:15:40.389Z,62.10
2018-09-18T00:20:44.575Z,62.30
2018-09-18T00:25:48.179Z,62.60
2018-09-18T00:30:51.762Z,62.80
2018-09-18T00:35:55.508Z,63.30
2018-09-18T00:40:59.099Z,62.70
2018-09-18T00:46:03.189Z,62.40
2018-09-18T00:51:07.202Z,62.70
2018-09-18T00:56:12.444Z,62.60
2018-09-18T01:01:16.031Z,63.20
2018-09-18T01:06:20.530Z,62.80
2018-09-18T01:11:24.484Z,62.90
2018-09-18T01:16:28.140Z,62.90
2018-09-18T01:21:31.717Z,62.30
2018-09-18T01:26:35.399Z,62.70
2018-09-18T01:31:38.972Z,63.30
2018-09-18T01:36:42.545Z,63.40
2018-09-18T01:41:46.435Z,63.60
2018-09-18T01:46:50.002Z,63.70
2018-09-18T01:51:53.589Z,63.90
2018-09-18T01:56:57.952Z,63.90
2018-09-18T02:02:01.744Z,63.90
2018-09-18T02:07:05.549Z,63.30
2018-09-18T02:12:09.112Z,63.90
2018-09-18T02:17:14.376Z,63.30
2018-09-18T02:22:26.526Z,62.90
2018-09-18T02:27:30.208Z,62.90
2018-09-18T02:32:33.741Z,63.10
2018-09-18T02:37:37.323Z,63.30
2018-09-18T02:42:40.956Z,62.40
2018-09-18T02:47:44.548Z,62.80
2018-09-18T02:52:48.111Z,63.40
2018-09-18T02:57:51.824Z,63.30
2018-09-18T03:02:55.377Z,63.40
2018-09-18T03:08:01.593Z,63.70
2018-09-18T03:13:05.144Z,63.40
2018-09-18T03:18:09.324Z,64.00
2018-09-18T03:23:12.978Z,63.40
2018-09-18T03:28:16.626Z,63.50
2018-09-18T03:33:20.391Z,64.10
2018-09-18T03:38:24.328Z,64.10
2018-09-18T03:43:28.317Z,64.50
2018-09-18T03:48:31.860Z,64.40
2018-09-18T03:53:35.458Z,64.40
2018-09-18T03:58:39.434Z,64.50
2018-09-18T04:03:43.021Z,64.80
2018-09-18T04:08:46.612Z,65.00
2018-09-18T04:13:50.155Z,65.00
2018-09-18T04:18:54.360Z,64.20
2018-09-18T04:23:58.372Z,64.80
2018-09-18T04:29:08.675Z,65.40
2018-09-18T04:34:14.244Z,65.10
2018-09-18T04:39:18.570Z,65.40
2018-09-18T04:44:22.150Z,65.20
2018-09-18T04:49:25.745Z,66.20
2018-09-18T04:54:29.299Z,66.60
2018-09-18T04:59:33.581Z,66.70
2018-09-18T05:04:37.248Z,65.90
2018-09-18T05:09:41.042Z,66.00
2018-09-18T05:14:44.977Z,65.90
2018-09-18T05:19:48.519Z,66.50
2018-09-18T05:24:52.106Z,66.70
2018-09-18T05:29:56.123Z,66.30
2018-09-18T05:34:59.714Z,66.60
2018-09-18T05:40:06.539Z,66.70
2018-09-18T05:45:10.804Z,66.80
2018-09-18T05:50:14.805Z,65.90
2018-09-18T05:55:18.504Z,65.80
2018-09-18T06:00:22.172Z,66.20
2018-09-18T06:05:25.768Z,66.20
2018-09-18T06:10:29.336Z,66.20
2018-09-18T06:15:32.936Z,66.30
2018-09-18T06:20:39.744Z,66.10
2018-09-18T06:25:43.429Z,66.40
2018-09-18T06:30:47.015Z,66.40
2018-09-18T06:35:51.973Z,67.00
2018-09-18T06:40:55.658Z,66.90
2018-09-18T06:45:59.289Z,66.20
2018-09-18T06:51:02.917Z,66.80
2018-09-18T06:56:06.675Z,66.90
2018-09-18T07:01:10.276Z,66.50
2018-09-18T07:06:15.740Z,66.40
2018-09-18T07:11:19.324Z,66.30
2018-09-18T07:16:23.613Z,65.70
2018-09-18T07:21:27.168Z,65.90
2018-09-18T07:26:34.601Z,65.80
2018-09-18T07:31:44.002Z,65.80
2018-09-18T07:36:47.766Z,64.90
2018-09-18T07:41:52.029Z,64.50
2018-09-18T07:46:58.612Z,64.30
2018-09-18T07:52:04.112Z,64.10
2018-09-18T07:57:07.763Z,64.10
2018-09-18T08:02:11.463Z,63.80
2018-09-18T08:07:15.145Z,62.30
2018-09-18T08:12:18.796Z,60.70
2018-09-18T08:17:22.404Z,60.80
2018-09-18T08:22:26.816Z,59.90
2018-09-18T08:27:31.100Z,58.80
2018-09-18T08:32:38.841Z,57.20
2018-09-18T08:37:42.695Z,55.50
2018-09-18T08:42:46.555Z,52.30
2018-09-18T08:47:50.173Z,44.60
2018-09-18T08:52:54.173Z,38.00
2018-09-18T08:58:00.040Z,34.80
2018-09-18T09:03:03.790Z,31.90
2018-09-18T09:08:07.499Z,30.90
2018-09-18T09:13:11.114Z,32.10
2018-09-18T09:18:14.754Z,35.00
2018-09-18T09:23:18.269Z,35.40
2018-09-18T09:28:24.841Z,37.50
2018-09-18T09:33:29.353Z,38.10
2018-09-18T09:38:35.706Z,39.70
2018-09-18T09:43:39.365Z,40.40
2018-09-18T09:48:43.880Z,41.90
2018-09-18T09:53:47.456Z,42.60
2018-09-18T09:58:51.635Z,42.70
2018-09-18T10:04:01.272Z,44.00
2018-09-18T10:09:08.074Z,44.40
2018-09-18T10:14:11.744Z,44.00
2018-09-18T10:19:15.325Z,43.40
2018-09-18T10:24:19.785Z,45.10
2018-09-18T10:29:23.575Z,45.30
2018-09-18T10:34:27.169Z,45.20
2018-09-18T10:39:31.419Z,45.10
2018-09-18T10:44:34.974Z,46.00
2018-09-18T10:49:38.733Z,46.20
2018-09-18T10:54:42.324Z,45.90
2018-09-18T10:59:45.913Z,45.90
2018-09-18T11:04:49.502Z,45.70
2018-09-18T11:09:53.117Z,45.80
2018-09-18T11:14:58.292Z,46.30
2018-09-18T11:20:01.928Z,47.70
2018-09-18T11:25:06.004Z,48.20
2018-09-18T11:30:10.112Z,48.80
2018-09-18T11:35:13.814Z,48.80
2018-09-18T11:40:19.211Z,49.60
2018-09-18T11:45:23.436Z,49.50
2018-09-18T11:55:30.978Z,50.20
2018-09-18T12:00:34.682Z,49.70
2018-09-18T12:10:42.228Z,50.20
2018-09-18T12:20:49.132Z,50.20
2018-09-18T12:25:52.731Z,50.40
2018-09-18T12:35:59.932Z,50.50
2018-09-18T12:41:03.554Z,51.30
2018-09-18T12:46:07.465Z,51.40
2018-09-18T12:51:11.668Z,50.40
2018-09-18T13:06:22.740Z,51.50
2018-09-18T13:11:26.634Z,52.10
2018-09-18T13:16:30.208Z,52.20
2018-09-18T13:21:33.832Z,51.00
2018-09-18T13:26:37.696Z,53.70
2018-09-18T13:31:41.277Z,53.50
2018-09-18T13:36:44.872Z,54.20
2018-09-18T13:46:52.661Z,48.60
2018-09-18T13:51:56.312Z,46.40
2018-09-18T13:56:59.972Z,45.50
2018-09-18T14:07:07.652Z,42.80
2018-09-18T14:12:11.745Z,42.80
2018-09-18T14:17:15.627Z,43.50
2018-09-18T14:27:22.624Z,42.30
2018-09-18T14:32:26.688Z,42.30
2018-09-18T14:37:30.271Z,42.80
2018-09-18T14:47:37.852Z,42.00
2018-09-18T14:52:41.455Z,41.60
2018-09-18T14:57:45.009Z,40.00
2018-09-18T15:07:52.180Z,38.50
2018-09-18T15:12:55.895Z,38.20
2018-09-18T15:18:00.188Z,37.80
2018-09-18T15:23:03.959Z,37.20
2018-09-18T15:28:10.270Z,37.90
2018-09-18T15:33:13.868Z,38.00
2018-09-18T15:38:18.101Z,37.40
2018-09-18T15:43:21.984Z,37.80
2018-09-18T15:48:26.428Z,39.20
2018-09-18T15:53:30.208Z,40.90
2018-09-18T15:58:33.894Z,41.00
2018-09-18T16:03:37.444Z,39.70
2018-09-18T16:08:41.050Z,39.50
2018-09-18T16:13:44.739Z,39.10
2018-09-18T16:18:48.303Z,38.90
2018-09-18T16:23:52.012Z,39.00
2018-09-18T16:28:55.603Z,39.30
2018-09-18T16:33:59.229Z,40.20
2018-09-18T16:39:02.947Z,40.00
2018-09-18T16:44:06.877Z,39.90
2018-09-18T16:49:10.480Z,39.70
2018-09-18T16:54:14.238Z,39.90
2018-09-18T16:59:17.817Z,40.80
2018-09-18T17:04:21.814Z,41.40
2018-09-18T17:09:25.435Z,43.30
2018-09-18T17:14:30.506Z,44.10
2018-09-18T17:19:34.616Z,44.60
2018-09-18T17:24:38.284Z,45.60
2018-09-18T17:29:42.055Z,46.90
2018-09-18T17:34:46.381Z,47.30
2018-09-18T17:39:51.059Z,47.60
2018-09-18T17:44:54.834Z,49.00
2018-09-18T17:49:59.796Z,49.60
2018-09-18T17:55:04.152Z,49.80
2018-09-18T18:00:07.836Z,49.60
2018-09-18T18:05:11.481Z,50.20
2018-09-18T18:10:15.511Z,51.10
2018-09-18T18:15:19.159Z,51.50
2018-09-18T18:20:22.848Z,51.90
2018-09-18T18:25:26.599Z,52.60
2018-09-18T18:30:32.259Z,53.10
2018-09-18T18:35:36.086Z,53.50
2018-09-18T18:40:39.682Z,54.20
2018-09-18T18:45:43.589Z,54.50
2018-09-18T18:50:47.519Z,54.70
2018-09-18T18:55:51.244Z,55.00
2018-09-18T19:00:56.242Z,55.00
2018-09-18T19:06:00.122Z,55.10
2018-09-18T19:11:03.701Z,55.50
2018-09-18T19:16:07.511Z,55.70
2018-09-18T19:21:11.121Z,55.90
2018-09-18T19:26:15.219Z,55.90
2018-09-18T19:31:18.749Z,56.20
2018-09-18T19:36:23.066Z,56.70
2018-09-18T19:41:26.958Z,56.40
2018-09-18T19:46:30.579Z,56.40
2018-09-18T19:51:34.215Z,56.30
2018-09-18T19:56:38.190Z,56.50
2018-09-18T20:01:41.780Z,56.60
2018-09-18T20:06:46.127Z,57.20
2018-09-18T20:11:49.732Z,57.50
2018-09-18T20:16:53.293Z,57.80
2018-09-18T20:21:56.904Z,59.80
2018-09-18T20:27:00.602Z,60.70
2018-09-18T20:32:04.980Z,62.90
2018-09-18T20:37:08.574Z,65.40
2018-09-18T20:42:12.150Z,67.60
2018-09-18T20:47:16.115Z,60.20
2018-09-18T20:52:20.052Z,55.50
2018-09-18T20:57:25.587Z,54.30
2018-09-18T21:02:29.157Z,55.20
2018-09-18T21:07:32.780Z,58.10
2018-09-18T21:12:36.474Z,58.80
2018-09-18T21:17:40.172Z,57.40
2018-09-18T21:22:43.792Z,56.40
2018-09-18T21:27:48.278Z,56.70
2018-09-18T21:32:52.364Z,56.30
2018-09-18T21:37:56.852Z,56.90
2018-09-18T21:43:00.474Z,56.30
2018-09-18T21:48:04.139Z,55.00
2018-09-18T21:53:10.333Z,55.80
2018-09-18T22:08:21.143Z,55.80
2018-09-18T22:13:25.242Z,56.20
2018-09-18T22:18:29.304Z,56.70
2018-09-18T22:23:32.896Z,56.10
2018-09-18T22:28:36.471Z,56.70
2018-09-18T22:38:47.255Z,56.50
2018-09-18T22:43:50.801Z,57.50
2018-09-18T22:48:54.339Z,58.60
2018-09-18T22:53:57.963Z,59.60
2018-09-18T22:59:01.588Z,59.40
2018-09-18T23:04:05.203Z,59.30
2018-09-18T23:09:09.487Z,59.40
2018-09-18T23:14:13.655Z,60.10
2018-09-18T23:19:17.211Z,59.80
2018-09-18T23:24:20.786Z,60.70
2018-09-18T23:29:25.071Z,60.30
2018-09-18T23:34:28.649Z,61.10
2018-09-18T23:39:32.212Z,61.00
2018-09-18T23:44:35.927Z,61.10
2018-09-18T23:49:39.484Z,61.80
2018-09-18T23:54:43.900Z,62.10
2018-09-18T23:59:47.785Z,61.90
